sensor_id;sensor_type;location;lat;lon;timestamp;pressure;altitude;pressure_sealevel;temperature;humidity
47430;BME280;33181;49.246;7.372;2023-03-16T00:02:09;99183.84;;;2.22;82.72
47430;BME280;33181;49.246;7.372;2023-03-16T00:04:36;99186.53;;;2.19;83.02
47430;BME280;33181;49.246;7.372;2023-03-16T00:07:10;99177.81;;;2.22;83.26
47430;BME280;33181;49.246;7.372;2023-03-16T00:09:37;99173.41;;;2.24;83.13
47430;BME280;33181;49.246;7.372;2023-03-16T00:12:10;99173.41;;;2.24;83.15
47430;BME280;33181;49.246;7.372;2023-03-16T00:14:41;99174.25;;;2.24;83.18
47430;BME280;33181;49.246;7.372;2023-03-16T00:17:10;99177.38;;;2.32;82.97
47430;BME280;33181;49.246;7.372;2023-03-16T00:19:45;99172.91;;;2.36;82.95
47430;BME280;33181;49.246;7.372;2023-03-16T00:22:12;99171.06;;;2.40;82.76
47430;BME280;33181;49.246;7.372;2023-03-16T00:24:39;99174.53;;;2.39;82.94
47430;BME280;33181;49.246;7.372;2023-03-16T00:27:10;99186.41;;;2.44;82.87
47430;BME280;33181;49.246;7.372;2023-03-16T00:29:43;99184.53;;;2.48;82.41
47430;BME280;33181;49.246;7.372;2023-03-16T00:32:27;99183.50;;;2.52;82.17
47430;BME280;33181;49.246;7.372;2023-03-16T00:34:54;99194.13;;;2.46;82.06
47430;BME280;33181;49.246;7.372;2023-03-16T00:37:21;99191.91;;;2.37;81.98
47430;BME280;33181;49.246;7.372;2023-03-16T00:39:48;99193.97;;;2.28;82.08
47430;BME280;33181;49.246;7.372;2023-03-16T00:42:17;99197.72;;;2.21;82.59
47430;BME280;33181;49.246;7.372;2023-03-16T00:44:44;99189.94;;;2.21;82.71
47430;BME280;33181;49.246;7.372;2023-03-16T00:47:11;99184.88;;;2.18;82.52
47430;BME280;33181;49.246;7.372;2023-03-16T00:49:42;99173.94;;;2.10;82.80
47430;BME280;33181;49.246;7.372;2023-03-16T00:52:11;99179.38;;;2.04;82.89
47430;BME280;33181;49.246;7.372;2023-03-16T00:54:41;99177.69;;;2.03;82.90
47430;BME280;33181;49.246;7.372;2023-03-16T00:57:10;99185.22;;;2.09;83.08
47430;BME280;33181;49.246;7.372;2023-03-16T00:59:37;99175.38;;;2.17;82.75
47430;BME280;33181;49.246;7.372;2023-03-16T01:02:05;99180.31;;;2.23;82.77
47430;BME280;33181;49.246;7.372;2023-03-16T01:04:31;99174.19;;;2.26;82.63
47430;BME280;33181;49.246;7.372;2023-03-16T01:06:59;99172.38;;;2.28;82.65
47430;BME280;33181;49.246;7.372;2023-03-16T01:09:24;99152.84;;;2.19;81.61
47430;BME280;33181;49.246;7.372;2023-03-16T01:11:50;99140.25;;;2.10;82.26
47430;BME280;33181;49.246;7.372;2023-03-16T01:14:20;99143.91;;;2.06;82.53
47430;BME280;33181;49.246;7.372;2023-03-16T01:16:47;99153.53;;;2.02;82.77
47430;BME280;33181;49.246;7.372;2023-03-16T01:19:13;99152.75;;;2.00;82.62
47430;BME280;33181;49.246;7.372;2023-03-16T01:21:40;99156.06;;;2.04;82.80
47430;BME280;33181;49.246;7.372;2023-03-16T01:24:08;99166.38;;;2.05;82.25
47430;BME280;33181;49.246;7.372;2023-03-16T01:26:34;99162.06;;;2.04;82.66
47430;BME280;33181;49.246;7.372;2023-03-16T01:29:00;99165.03;;;1.95;82.62
47430;BME280;33181;49.246;7.372;2023-03-16T01:31:27;99169.38;;;1.95;82.88
47430;BME280;33181;49.246;7.372;2023-03-16T01:33:54;99165.00;;;1.73;83.52
47430;BME280;33181;49.246;7.372;2023-03-16T01:36:20;99160.84;;;1.69;83.72
47430;BME280;33181;49.246;7.372;2023-03-16T01:38:46;99160.44;;;1.58;83.98
47430;BME280;33181;49.246;7.372;2023-03-16T01:41:13;99157.25;;;1.50;84.41
47430;BME280;33181;49.246;7.372;2023-03-16T01:43:40;99149.44;;;1.51;84.69
47430;BME280;33181;49.246;7.372;2023-03-16T01:46:08;99150.84;;;1.60;84.34
47430;BME280;33181;49.246;7.372;2023-03-16T01:49:07;99145.31;;;1.69;84.51
47430;BME280;33181;49.246;7.372;2023-03-16T01:51:42;99144.25;;;1.75;84.73
47430;BME280;33181;49.246;7.372;2023-03-16T01:57:04;99143.88;;;1.84;83.98
47430;BME280;33181;49.246;7.372;2023-03-16T02:00:03;99141.31;;;1.84;83.68
47430;BME280;33181;49.246;7.372;2023-03-16T02:02:50;99134.56;;;1.80;83.82
47430;BME280;33181;49.246;7.372;2023-03-16T02:05:37;99136.97;;;1.84;84.25
47430;BME280;33181;49.246;7.372;2023-03-16T02:08:24;99132.34;;;1.93;84.55
47430;BME280;33181;49.246;7.372;2023-03-16T02:10:51;99125.28;;;1.96;84.24
47430;BME280;33181;49.246;7.372;2023-03-16T02:13:21;99116.59;;;1.97;83.90
47430;BME280;33181;49.246;7.372;2023-03-16T02:15:48;99112.38;;;1.95;83.88
47430;BME280;33181;49.246;7.372;2023-03-16T02:18:14;99116.84;;;1.91;83.22
47430;BME280;33181;49.246;7.372;2023-03-16T02:21:02;99105.03;;;1.84;83.57
47430;BME280;33181;49.246;7.372;2023-03-16T02:23:31;99108.59;;;1.81;83.62
47430;BME280;33181;49.246;7.372;2023-03-16T02:29:19;99105.53;;;1.72;83.65
47430;BME280;33181;49.246;7.372;2023-03-16T02:31:51;99091.00;;;1.68;83.94
47430;BME280;33181;49.246;7.372;2023-03-16T02:34:17;99089.03;;;1.74;83.96
47430;BME280;33181;49.246;7.372;2023-03-16T02:36:45;99089.16;;;1.71;83.87
47430;BME280;33181;49.246;7.372;2023-03-16T02:39:13;99083.25;;;1.68;83.37
47430;BME280;33181;49.246;7.372;2023-03-16T02:41:39;99078.91;;;1.68;83.58
47430;BME280;33181;49.246;7.372;2023-03-16T02:44:36;99079.66;;;1.70;83.97
47430;BME280;33181;49.246;7.372;2023-03-16T02:47:10;99078.91;;;1.68;83.47
47430;BME280;33181;49.246;7.372;2023-03-16T02:49:42;99078.13;;;1.66;83.33
47430;BME280;33181;49.246;7.372;2023-03-16T02:52:09;99080.69;;;1.66;83.37
47430;BME280;33181;49.246;7.372;2023-03-16T02:54:35;99069.69;;;1.61;83.79
47430;BME280;33181;49.246;7.372;2023-03-16T02:57:01;99064.44;;;1.62;83.96
47430;BME280;33181;49.246;7.372;2023-03-16T02:59:27;99076.56;;;1.62;83.82
47430;BME280;33181;49.246;7.372;2023-03-16T03:01:53;99071.63;;;1.56;84.00
47430;BME280;33181;49.246;7.372;2023-03-16T03:04:19;99072.69;;;1.50;84.54
47430;BME280;33181;49.246;7.372;2023-03-16T03:06:48;99060.81;;;1.45;84.90
47430;BME280;33181;49.246;7.372;2023-03-16T03:09:14;99055.75;;;1.42;84.96
47430;BME280;33181;49.246;7.372;2023-03-16T03:11:40;99053.13;;;1.43;84.78
47430;BME280;33181;49.246;7.372;2023-03-16T03:14:06;99050.53;;;1.43;84.96
47430;BME280;33181;49.246;7.372;2023-03-16T03:16:32;99048.88;;;1.42;85.39
47430;BME280;33181;49.246;7.372;2023-03-16T03:18:58;99047.00;;;1.46;85.26
47430;BME280;33181;49.246;7.372;2023-03-16T03:21:24;99040.13;;;1.45;85.48
47430;BME280;33181;49.246;7.372;2023-03-16T03:23:51;99042.09;;;1.38;85.49
47430;BME280;33181;49.246;7.372;2023-03-16T03:26:17;99041.38;;;1.34;85.94
47430;BME280;33181;49.246;7.372;2023-03-16T03:28:44;99039.72;;;1.33;86.10
47430;BME280;33181;49.246;7.372;2023-03-16T03:31:19;99045.75;;;1.32;86.19
47430;BME280;33181;49.246;7.372;2023-03-16T03:33:46;99039.81;;;1.30;86.72
47430;BME280;33181;49.246;7.372;2023-03-16T03:36:12;99035.53;;;1.07;88.67
47430;BME280;33181;49.246;7.372;2023-03-16T03:38:39;99032.25;;;1.02;89.43
47430;BME280;33181;49.246;7.372;2023-03-16T03:41:05;99036.75;;;0.97;89.75
47430;BME280;33181;49.246;7.372;2023-03-16T03:43:32;99036.00;;;0.93;90.03
47430;BME280;33181;49.246;7.372;2023-03-16T03:46:00;99042.88;;;0.95;90.21
47430;BME280;33181;49.246;7.372;2023-03-16T03:48:27;99036.44;;;0.83;91.44
47430;BME280;33181;49.246;7.372;2023-03-16T03:50:54;99038.00;;;0.87;91.82
47430;BME280;33181;49.246;7.372;2023-03-16T03:53:20;99034.13;;;0.99;92.01
47430;BME280;33181;49.246;7.372;2023-03-16T03:55:46;99035.41;;;1.10;91.94
47430;BME280;33181;49.246;7.372;2023-03-16T03:58:14;99029.81;;;1.21;91.41
47430;BME280;33181;49.246;7.372;2023-03-16T04:00:40;99025.97;;;1.31;90.53
47430;BME280;33181;49.246;7.372;2023-03-16T04:03:08;99024.94;;;1.35;90.20
47430;BME280;33181;49.246;7.372;2023-03-16T04:05:34;99032.53;;;1.40;89.71
47430;BME280;33181;49.246;7.372;2023-03-16T04:07:59;99028.81;;;1.47;88.92
47430;BME280;33181;49.246;7.372;2023-03-16T04:10:27;99029.47;;;1.52;89.06
47430;BME280;33181;49.246;7.372;2023-03-16T04:12:57;99037.16;;;1.54;88.51
47430;BME280;33181;49.246;7.372;2023-03-16T04:15:23;99027.19;;;1.45;88.35
47430;BME280;33181;49.246;7.372;2023-03-16T04:17:49;99030.78;;;1.41;87.39
47430;BME280;33181;49.246;7.372;2023-03-16T04:20:17;99026.84;;;1.08;88.64
47430;BME280;33181;49.246;7.372;2023-03-16T04:22:47;99024.41;;;1.04;89.45
47430;BME280;33181;49.246;7.372;2023-03-16T04:25:16;99021.72;;;1.07;89.01
47430;BME280;33181;49.246;7.372;2023-03-16T04:27:42;99021.38;;;1.16;88.93
47430;BME280;33181;49.246;7.372;2023-03-16T04:30:12;99017.59;;;1.25;88.86
47430;BME280;33181;49.246;7.372;2023-03-16T04:32:39;99006.31;;;1.27;88.54
47430;BME280;33181;49.246;7.372;2023-03-16T04:35:06;98999.06;;;1.35;88.46
47430;BME280;33181;49.246;7.372;2023-03-16T04:37:32;99004.75;;;1.45;88.45
47430;BME280;33181;49.246;7.372;2023-03-16T04:39:59;99001.00;;;1.52;87.94
47430;BME280;33181;49.246;7.372;2023-03-16T04:42:25;99000.75;;;1.58;87.46
47430;BME280;33181;49.246;7.372;2023-03-16T04:44:50;99007.50;;;1.62;87.58
47430;BME280;33181;49.246;7.372;2023-03-16T04:47:17;99005.63;;;1.66;87.44
47430;BME280;33181;49.246;7.372;2023-03-16T04:49:43;99005.50;;;1.69;87.05
47430;BME280;33181;49.246;7.372;2023-03-16T04:52:10;98998.56;;;1.70;86.54
47430;BME280;33181;49.246;7.372;2023-03-16T04:54:35;98999.56;;;1.67;86.57
47430;BME280;33181;49.246;7.372;2023-03-16T04:57:01;98996.31;;;1.62;85.82
47430;BME280;33181;49.246;7.372;2023-03-16T04:59:28;98998.19;;;1.58;86.10
47430;BME280;33181;49.246;7.372;2023-03-16T05:01:54;98997.34;;;1.58;86.04
47430;BME280;33181;49.246;7.372;2023-03-16T05:04:20;98993.13;;;1.55;85.95
47430;BME280;33181;49.246;7.372;2023-03-16T05:06:46;98993.25;;;1.52;85.57
47430;BME280;33181;49.246;7.372;2023-03-16T05:09:12;98994.28;;;1.48;85.69
47430;BME280;33181;49.246;7.372;2023-03-16T05:11:38;98996.13;;;1.45;85.66
47430;BME280;33181;49.246;7.372;2023-03-16T05:14:04;98992.69;;;1.44;85.34
47430;BME280;33181;49.246;7.372;2023-03-16T05:16:30;98995.16;;;1.47;85.47
47430;BME280;33181;49.246;7.372;2023-03-16T05:19:00;99007.38;;;1.44;84.98
47430;BME280;33181;49.246;7.372;2023-03-16T05:21:29;99012.56;;;1.44;85.49
47430;BME280;33181;49.246;7.372;2023-03-16T05:23:58;99006.59;;;1.42;85.23
47430;BME280;33181;49.246;7.372;2023-03-16T05:26:24;98999.06;;;1.35;85.64
47430;BME280;33181;49.246;7.372;2023-03-16T05:28:50;99007.13;;;1.28;86.22
47430;BME280;33181;49.246;7.372;2023-03-16T05:31:17;98994.28;;;1.26;86.43
47430;BME280;33181;49.246;7.372;2023-03-16T05:33:43;99001.13;;;1.27;86.26
47430;BME280;33181;49.246;7.372;2023-03-16T05:36:10;98997.69;;;1.27;86.31
47430;BME280;33181;49.246;7.372;2023-03-16T05:38:36;99001.91;;;1.29;86.37
47430;BME280;33181;49.246;7.372;2023-03-16T05:41:04;98998.34;;;1.32;86.29
47430;BME280;33181;49.246;7.372;2023-03-16T05:43:30;98996.47;;;1.35;86.21
47430;BME280;33181;49.246;7.372;2023-03-16T05:45:56;99000.53;;;1.43;86.32
47430;BME280;33181;49.246;7.372;2023-03-16T05:48:23;99007.03;;;1.53;86.38
47430;BME280;33181;49.246;7.372;2023-03-16T05:50:51;99006.69;;;1.60;86.08
47430;BME280;33181;49.246;7.372;2023-03-16T05:53:17;99006.78;;;1.59;85.79
47430;BME280;33181;49.246;7.372;2023-03-16T05:55:43;98998.28;;;1.55;85.77
47430;BME280;33181;49.246;7.372;2023-03-16T05:58:09;99002.56;;;1.56;86.13
47430;BME280;33181;49.246;7.372;2023-03-16T06:00:36;98992.94;;;1.60;86.15
47430;BME280;33181;49.246;7.372;2023-03-16T06:03:04;98988.53;;;1.62;85.59
47430;BME280;33181;49.246;7.372;2023-03-16T06:05:30;98993.84;;;1.59;86.56
47430;BME280;33181;49.246;7.372;2023-03-16T06:07:56;98997.97;;;1.63;86.72
47430;BME280;33181;49.246;7.372;2023-03-16T06:10:23;98995.94;;;1.71;86.87
47430;BME280;33181;49.246;7.372;2023-03-16T06:12:50;98998.03;;;1.83;87.04
47430;BME280;33181;49.246;7.372;2023-03-16T06:15:16;99004.63;;;1.91;86.18
47430;BME280;33181;49.246;7.372;2023-03-16T06:17:42;98994.19;;;1.92;86.69
47430;BME280;33181;49.246;7.372;2023-03-16T06:20:12;99001.66;;;2.00;86.44
47430;BME280;33181;49.246;7.372;2023-03-16T06:22:40;99003.63;;;2.15;86.12
47430;BME280;33181;49.246;7.372;2023-03-16T06:25:07;99003.72;;;2.32;85.88
47430;BME280;33181;49.246;7.372;2023-03-16T06:27:35;98993.06;;;2.59;85.46
47430;BME280;33181;49.246;7.372;2023-03-16T06:30:01;98999.81;;;3.01;86.17
47430;BME280;33181;49.246;7.372;2023-03-16T06:32:27;98997.78;;;3.27;84.34
47430;BME280;33181;49.246;7.372;2023-03-16T06:34:52;98995.09;;;3.47;81.45
47430;BME280;33181;49.246;7.372;2023-03-16T06:37:18;98987.47;;;3.61;80.90
47430;BME280;33181;49.246;7.372;2023-03-16T06:39:44;98985.50;;;3.66;78.46
47430;BME280;33181;49.246;7.372;2023-03-16T06:42:10;98985.06;;;3.76;77.74
47430;BME280;33181;49.246;7.372;2023-03-16T06:44:36;98985.50;;;4.18;76.61
47430;BME280;33181;49.246;7.372;2023-03-16T06:47:02;98971.47;;;4.72;75.44
47430;BME280;33181;49.246;7.372;2023-03-16T06:49:29;98965.44;;;5.50;72.86
47430;BME280;33181;49.246;7.372;2023-03-16T06:51:54;98960.94;;;6.71;71.36
47430;BME280;33181;49.246;7.372;2023-03-16T06:54:23;98960.72;;;7.97;67.25
47430;BME280;33181;49.246;7.372;2023-03-16T06:56:49;98957.94;;;8.90;64.26
47430;BME280;33181;49.246;7.372;2023-03-16T06:59:15;98956.50;;;9.82;61.35
47430;BME280;33181;49.246;7.372;2023-03-16T07:01:41;98952.59;;;10.34;57.86
47430;BME280;33181;49.246;7.372;2023-03-16T07:04:08;98952.41;;;10.71;56.14
47430;BME280;33181;49.246;7.372;2023-03-16T07:06:34;98945.81;;;10.99;54.77
47430;BME280;33181;49.246;7.372;2023-03-16T07:09:00;98947.63;;;10.87;53.39
47430;BME280;33181;49.246;7.372;2023-03-16T07:11:27;98950.47;;;10.39;53.98
47430;BME280;33181;49.246;7.372;2023-03-16T07:13:52;98953.84;;;9.70;55.85
47430;BME280;33181;49.246;7.372;2023-03-16T07:16:18;98956.19;;;9.38;57.44
47430;BME280;33181;49.246;7.372;2023-03-16T07:18:44;98958.03;;;8.88;57.61
47430;BME280;33181;49.246;7.372;2023-03-16T07:21:10;98968.03;;;8.57;59.71
47430;BME280;33181;49.246;7.372;2023-03-16T07:23:36;98971.66;;;8.29;59.83
47430;BME280;33181;49.246;7.372;2023-03-16T07:26:01;98972.56;;;8.16;60.89
47430;BME280;33181;49.246;7.372;2023-03-16T07:28:28;98968.50;;;8.11;61.61
47430;BME280;33181;49.246;7.372;2023-03-16T07:30:54;98970.31;;;8.36;61.13
47430;BME280;33181;49.246;7.372;2023-03-16T07:33:20;98975.97;;;8.69;60.59
47430;BME280;33181;49.246;7.372;2023-03-16T07:35:47;98967.41;;;9.03;59.91
47430;BME280;33181;49.246;7.372;2023-03-16T07:38:12;98962.06;;;9.18;58.76
47430;BME280;33181;49.246;7.372;2023-03-16T07:40:39;98978.06;;;8.64;59.46
47430;BME280;33181;49.246;7.372;2023-03-16T07:43:05;98989.69;;;8.72;59.93
47430;BME280;33181;49.246;7.372;2023-03-16T07:45:31;98992.25;;;9.11;59.69
47430;BME280;33181;49.246;7.372;2023-03-16T07:47:57;98989.22;;;9.41;58.51
47430;BME280;33181;49.246;7.372;2023-03-16T07:50:23;98994.50;;;9.65;58.22
47430;BME280;33181;49.246;7.372;2023-03-16T07:52:48;98988.50;;;9.87;57.73
47430;BME280;33181;49.246;7.372;2023-03-16T07:55:15;98981.88;;;10.05;56.33
47430;BME280;33181;49.246;7.372;2023-03-16T07:57:41;98978.72;;;9.89;56.04
47430;BME280;33181;49.246;7.372;2023-03-16T08:00:08;98973.50;;;9.65;57.32
47430;BME280;33181;49.246;7.372;2023-03-16T08:02:35;98966.50;;;9.28;58.52
47430;BME280;33181;49.246;7.372;2023-03-16T08:05:01;98964.53;;;9.19;58.86
47430;BME280;33181;49.246;7.372;2023-03-16T08:07:26;98955.47;;;9.36;58.36
47430;BME280;33181;49.246;7.372;2023-03-16T08:09:52;98951.63;;;9.53;59.15
47430;BME280;33181;49.246;7.372;2023-03-16T08:12:18;98949.69;;;9.07;59.70
47430;BME280;33181;49.246;7.372;2023-03-16T08:14:43;98958.78;;;9.27;59.97
47430;BME280;33181;49.246;7.372;2023-03-16T08:17:10;98964.16;;;9.13;59.90
47430;BME280;33181;49.246;7.372;2023-03-16T08:19:37;98969.31;;;9.01;60.09
47430;BME280;33181;49.246;7.372;2023-03-16T08:22:04;98971.56;;;9.19;60.58
47430;BME280;33181;49.246;7.372;2023-03-16T08:24:31;98975.59;;;9.36;59.60
47430;BME280;33181;49.246;7.372;2023-03-16T08:26:58;98974.28;;;9.54;58.90
47430;BME280;33181;49.246;7.372;2023-03-16T08:29:25;98954.72;;;9.58;59.00
47430;BME280;33181;49.246;7.372;2023-03-16T08:31:54;98960.03;;;9.45;58.03
47430;BME280;33181;49.246;7.372;2023-03-16T08:34:22;98964.47;;;8.58;58.11
47430;BME280;33181;49.246;7.372;2023-03-16T08:36:48;98962.84;;;8.05;61.16
47430;BME280;33181;49.246;7.372;2023-03-16T08:39:14;98945.38;;;8.18;61.28
47430;BME280;33181;49.246;7.372;2023-03-16T08:41:41;98940.25;;;8.29;61.49
47430;BME280;33181;49.246;7.372;2023-03-16T08:44:08;98945.59;;;8.41;60.39
47430;BME280;33181;49.246;7.372;2023-03-16T08:46:34;98950.41;;;8.34;60.63
47430;BME280;33181;49.246;7.372;2023-03-16T08:49:00;98951.13;;;8.23;60.53
47430;BME280;33181;49.246;7.372;2023-03-16T08:51:27;98960.38;;;8.42;61.36
47430;BME280;33181;49.246;7.372;2023-03-16T08:53:54;98957.41;;;8.08;60.11
47430;BME280;33181;49.246;7.372;2023-03-16T08:56:20;98962.53;;;8.09;61.23
47430;BME280;33181;49.246;7.372;2023-03-16T08:58:46;98962.72;;;8.06;60.56
47430;BME280;33181;49.246;7.372;2023-03-16T09:01:15;98956.56;;;8.07;60.38
47430;BME280;33181;49.246;7.372;2023-03-16T09:03:45;98953.47;;;8.41;59.96
47430;BME280;33181;49.246;7.372;2023-03-16T09:06:14;98955.25;;;8.40;58.69
47430;BME280;33181;49.246;7.372;2023-03-16T09:08:41;98947.81;;;8.47;58.92
47430;BME280;33181;49.246;7.372;2023-03-16T09:11:12;98942.75;;;8.18;58.64
47430;BME280;33181;49.246;7.372;2023-03-16T09:13:39;98940.47;;;8.13;58.97
47430;BME280;33181;49.246;7.372;2023-03-16T09:16:10;98937.84;;;8.01;59.43
47430;BME280;33181;49.246;7.372;2023-03-16T09:18:36;98942.19;;;8.00;59.26
47430;BME280;33181;49.246;7.372;2023-03-16T09:21:06;98940.34;;;8.28;59.58
47430;BME280;33181;49.246;7.372;2023-03-16T09:23:35;98940.97;;;8.70;59.80
47430;BME280;33181;49.246;7.372;2023-03-16T09:26:05;98944.03;;;8.76;58.15
47430;BME280;33181;49.246;7.372;2023-03-16T09:28:34;98922.75;;;9.18;57.24
47430;BME280;33181;49.246;7.372;2023-03-16T09:31:01;98935.59;;;8.97;57.80
47430;BME280;33181;49.246;7.372;2023-03-16T09:33:28;98942.69;;;8.95;57.90
47430;BME280;33181;49.246;7.372;2023-03-16T09:35:55;98936.19;;;9.00;56.64
47430;BME280;33181;49.246;7.372;2023-03-16T09:38:22;98935.72;;;8.95;57.93
47430;BME280;33181;49.246;7.372;2023-03-16T09:41:34;98930.03;;;9.25;56.36
47430;BME280;33181;49.246;7.372;2023-03-16T09:44:31;98919.41;;;9.40;55.57
47430;BME280;33181;49.246;7.372;2023-03-16T09:47:00;98919.72;;;9.59;56.11
47430;BME280;33181;49.246;7.372;2023-03-16T09:49:36;98920.47;;;9.72;56.38
47430;BME280;33181;49.246;7.372;2023-03-16T09:55:11;98921.75;;;9.67;54.88
47430;BME280;33181;49.246;7.372;2023-03-16T09:57:43;98910.66;;;10.10;54.51
47430;BME280;33181;49.246;7.372;2023-03-16T10:00:23;98919.31;;;10.68;53.04
47430;BME280;33181;49.246;7.372;2023-03-16T10:06:16;98913.25;;;10.45;53.33
47430;BME280;33181;49.246;7.372;2023-03-16T10:14:15;98911.16;;;11.69;51.41
47430;BME280;33181;49.246;7.372;2023-03-16T10:17:17;98914.97;;;12.09;48.23
47430;BME280;33181;49.246;7.372;2023-03-16T10:20:10;98915.59;;;12.01;49.04
47430;BME280;33181;49.246;7.372;2023-03-16T10:22:44;98910.84;;;12.16;48.06
47430;BME280;33181;49.246;7.372;2023-03-16T10:25:21;98902.25;;;12.44;47.96
47430;BME280;33181;49.246;7.372;2023-03-16T10:27:49;98908.34;;;12.75;45.89
47430;BME280;33181;49.246;7.372;2023-03-16T10:30:24;98908.59;;;12.42;45.71
47430;BME280;33181;49.246;7.372;2023-03-16T10:32:53;98896.88;;;12.46;45.31
47430;BME280;33181;49.246;7.372;2023-03-16T10:38:02;98891.28;;;12.80;46.78
47430;BME280;33181;49.246;7.372;2023-03-16T10:40:33;98890.88;;;12.84;44.98
47430;BME280;33181;49.246;7.372;2023-03-16T10:43:20;98901.28;;;12.15;47.07
47430;BME280;33181;49.246;7.372;2023-03-16T10:45:48;98899.00;;;12.10;46.46
47430;BME280;33181;49.246;7.372;2023-03-16T10:48:18;98897.47;;;12.28;46.62
47430;BME280;33181;49.246;7.372;2023-03-16T10:50:51;98882.47;;;11.45;47.17
47430;BME280;33181;49.246;7.372;2023-03-16T10:53:30;98884.97;;;11.14;48.01
47430;BME280;33181;49.246;7.372;2023-03-16T10:56:00;98880.22;;;11.41;48.39
47430;BME280;33181;49.246;7.372;2023-03-16T10:58:32;98884.75;;;11.71;47.32
47430;BME280;33181;49.246;7.372;2023-03-16T11:00:59;98885.84;;;12.10;47.51
47430;BME280;33181;49.246;7.372;2023-03-16T11:03:27;98883.81;;;11.93;46.55
47430;BME280;33181;49.246;7.372;2023-03-16T11:06:02;98888.84;;;11.64;46.60
47430;BME280;33181;49.246;7.372;2023-03-16T11:08:36;98875.66;;;11.96;46.34
47430;BME280;33181;49.246;7.372;2023-03-16T11:11:15;98869.53;;;12.47;45.70
47430;BME280;33181;49.246;7.372;2023-03-16T11:13:48;98858.00;;;12.88;45.12
47430;BME280;33181;49.246;7.372;2023-03-16T11:16:35;98867.94;;;12.65;44.31
47430;BME280;33181;49.246;7.372;2023-03-16T11:19:28;98857.69;;;12.72;43.45
47430;BME280;33181;49.246;7.372;2023-03-16T11:22:24;98858.84;;;12.89;43.27
47430;BME280;33181;49.246;7.372;2023-03-16T11:33:15;98839.44;;;12.99;43.83
47430;BME280;33181;49.246;7.372;2023-03-16T11:41:31;98826.50;;;12.77;41.41
47430;BME280;33181;49.246;7.372;2023-03-16T11:44:36;98838.75;;;12.47;39.79
47430;BME280;33181;49.246;7.372;2023-03-16T11:59:27;98822.00;;;11.87;40.47
47430;BME280;33181;49.246;7.372;2023-03-16T12:05:11;98819.22;;;11.68;40.28
47430;BME280;33181;49.246;7.372;2023-03-16T12:11:01;98807.41;;;12.44;39.53
47430;BME280;33181;49.246;7.372;2023-03-16T12:13:45;98809.25;;;12.63;41.07
47430;BME280;33181;49.246;7.372;2023-03-16T12:16:35;98802.78;;;12.77;40.17
47430;BME280;33181;49.246;7.372;2023-03-16T12:19:24;98797.56;;;12.37;38.83
47430;BME280;33181;49.246;7.372;2023-03-16T12:22:01;98793.81;;;12.39;39.49
47430;BME280;33181;49.246;7.372;2023-03-16T12:24:36;98803.69;;;12.16;39.39
47430;BME280;33181;49.246;7.372;2023-03-16T12:27:05;98798.91;;;12.31;40.45
47430;BME280;33181;49.246;7.372;2023-03-16T12:33:03;98787.31;;;12.53;41.91
47430;BME280;33181;49.246;7.372;2023-03-16T12:35:43;98781.69;;;12.77;41.17
47430;BME280;33181;49.246;7.372;2023-03-16T12:41:14;98766.44;;;13.00;38.37
47430;BME280;33181;49.246;7.372;2023-03-16T12:47:13;98754.63;;;13.14;38.67
47430;BME280;33181;49.246;7.372;2023-03-16T12:49:44;98751.44;;;13.20;39.33
47430;BME280;33181;49.246;7.372;2023-03-16T12:52:12;98744.66;;;12.98;39.85
47430;BME280;33181;49.246;7.372;2023-03-16T12:54:50;98739.25;;;13.09;39.36
47430;BME280;33181;49.246;7.372;2023-03-16T12:57:23;98743.81;;;13.36;38.85
47430;BME280;33181;49.246;7.372;2023-03-16T12:59:57;98750.75;;;13.47;38.04
47430;BME280;33181;49.246;7.372;2023-03-16T13:02:33;98740.50;;;13.25;38.60
47430;BME280;33181;49.246;7.372;2023-03-16T13:05:25;98735.16;;;13.54;39.33
47430;BME280;33181;49.246;7.372;2023-03-16T13:08:12;98724.31;;;13.57;38.40
47430;BME280;33181;49.246;7.372;2023-03-16T13:10:39;98715.47;;;13.85;38.24
47430;BME280;33181;49.246;7.372;2023-03-16T13:13:14;98709.97;;;14.06;38.46
47430;BME280;33181;49.246;7.372;2023-03-16T13:15:43;98709.31;;;13.95;36.25
47430;BME280;33181;49.246;7.372;2023-03-16T13:20:57;98711.84;;;13.86;37.62
47430;BME280;33181;49.246;7.372;2023-03-16T13:23:28;98711.47;;;13.81;37.63
47430;BME280;33181;49.246;7.372;2023-03-16T13:26:17;98703.44;;;14.01;38.19
47430;BME280;33181;49.246;7.372;2023-03-16T13:28:51;98699.00;;;14.01;36.79
47430;BME280;33181;49.246;7.372;2023-03-16T13:33:54;98695.47;;;13.83;38.46
47430;BME280;33181;49.246;7.372;2023-03-16T13:36:23;98708.28;;;13.68;37.19
47430;BME280;33181;49.246;7.372;2023-03-16T13:39:18;98695.25;;;13.66;37.35
47430;BME280;33181;49.246;7.372;2023-03-16T13:42:19;98690.50;;;13.33;38.57
47430;BME280;33181;49.246;7.372;2023-03-16T13:44:46;98690.72;;;13.49;37.78
47430;BME280;33181;49.246;7.372;2023-03-16T13:47:16;98694.50;;;13.47;37.42
47430;BME280;33181;49.246;7.372;2023-03-16T13:49:44;98692.03;;;13.26;35.79
47430;BME280;33181;49.246;7.372;2023-03-16T13:52:29;98697.63;;;12.93;37.27
47430;BME280;33181;49.246;7.372;2023-03-16T13:54:57;98702.88;;;13.13;38.01
47430;BME280;33181;49.246;7.372;2023-03-16T13:57:27;98691.88;;;13.37;38.08
47430;BME280;33181;49.246;7.372;2023-03-16T14:00:12;98683.94;;;13.47;39.23
47430;BME280;33181;49.246;7.372;2023-03-16T14:02:46;98682.16;;;13.37;36.65
47430;BME280;33181;49.246;7.372;2023-03-16T14:05:26;98678.84;;;13.16;36.58
47430;BME280;33181;49.246;7.372;2023-03-16T14:07:54;98679.53;;;13.18;37.28
47430;BME280;33181;49.246;7.372;2023-03-16T14:10:22;98679.84;;;13.05;36.97
47430;BME280;33181;49.246;7.372;2023-03-16T14:13:05;98680.97;;;13.03;37.24
47430;BME280;33181;49.246;7.372;2023-03-16T14:15:31;98679.69;;;13.07;37.81
47430;BME280;33181;49.246;7.372;2023-03-16T14:18:16;98685.38;;;13.21;38.23
47430;BME280;33181;49.246;7.372;2023-03-16T14:20:50;98682.56;;;13.23;38.99
47430;BME280;33181;49.246;7.372;2023-03-16T14:23:34;98678.72;;;13.08;38.41
47430;BME280;33181;49.246;7.372;2023-03-16T14:26:05;98677.34;;;12.94;38.82
47430;BME280;33181;49.246;7.372;2023-03-16T14:28:32;98679.28;;;13.02;38.76
47430;BME280;33181;49.246;7.372;2023-03-16T14:31:19;98677.22;;;12.86;39.11
47430;BME280;33181;49.246;7.372;2023-03-16T14:33:45;98675.13;;;12.80;39.35